Terminal Aerodrome Forecast
Issued by NWS Shreveport, LA

Home | Current Version | Previous Version | Text Only | Print | Product List | Glossary On
Versions: 1 2 3 4 5 6 7 8 9 10 11 12 13 14 15 16 17 18 19 20
000
FTUS44 KSHV 230900 AAA
TAFSHV
TAF AMD
KSHV 230905Z 2309/2406 23005KT P6SM OVC004
      TEMPO 2310/2313 3SM RA BR BKN006 OVC015
     FM231600 23010G18KT P6SM BKN008 OVC015
     FM231800 22015G20KT P6SM BKN020
     FM232000 19012G22KT P6SM OVC035
     FM240000 21015G22KT P6SM FEW250=

USA.gov is the U.S. government's official web portal to all federal, state and local government web resources and services.